createdAt,value
2023-05-17T00:01:08.066Z,29.99
2023-05-17T00:03:17.274Z,30.01
2023-05-17T00:05:27.270Z,30.04
2023-05-17T00:07:36.751Z,30.08
2023-05-17T00:09:46.082Z,30.12
2023-05-17T00:11:55.406Z,30.17
2023-05-17T00:14:04.548Z,30.22
2023-05-17T00:16:14.019Z,30.26
2023-05-17T00:18:23.661Z,30.29
2023-05-17T00:20:32.857Z,30.29
2023-05-17T00:22:43.609Z,30.32
2023-05-17T00:24:53.535Z,30.34
2023-05-17T00:27:02.787Z,30.37
2023-05-17T00:29:12.385Z,30.39
2023-05-17T00:31:21.423Z,30.38
2023-05-17T00:33:31.005Z,30.39
2023-05-17T00:35:40.937Z,30.38
2023-05-17T00:37:50.564Z,30.37
2023-05-17T00:40:00.190Z,30.34
2023-05-17T00:42:10.253Z,30.33
2023-05-17T00:44:19.541Z,30.34
2023-05-17T00:46:28.963Z,30.34
2023-05-17T00:48:38.678Z,30.31
2023-05-17T00:50:48.549Z,30.27
2023-05-17T00:52:58.236Z,30.22
2023-05-17T00:55:08.005Z,30.19
2023-05-17T00:57:18.133Z,30.14
2023-05-17T00:59:27.916Z,30.09
2023-05-17T01:01:39.013Z,30.06
2023-05-17T01:03:48.455Z,30.06
2023-05-17T01:05:58.967Z,30.06
2023-05-17T01:08:09.759Z,30.06
2023-05-17T01:10:19.194Z,30.04
2023-05-17T01:12:40.938Z,30.02
2023-05-17T01:15:00.185Z,30.01
2023-05-17T01:17:18.026Z,30.00
2023-05-17T01:19:51.965Z,30.01
2023-05-17T01:22:12.709Z,29.95
2023-05-17T01:24:30.570Z,29.93
2023-05-17T01:26:44.429Z,29.90
2023-05-17T01:28:59.139Z,29.88
2023-05-17T01:31:10.291Z,29.84
2023-05-17T01:33:20.148Z,29.81
2023-05-17T01:35:30.078Z,29.79
2023-05-17T01:37:40.027Z,29.78
2023-05-17T01:39:49.997Z,29.78
2023-05-17T01:42:06.519Z,29.76
2023-05-17T01:44:26.608Z,29.73
2023-05-17T01:46:40.831Z,29.69
2023-05-17T01:48:57.757Z,29.66
2023-05-17T01:51:09.588Z,29.63
2023-05-17T01:53:22.812Z,29.61
2023-05-17T01:55:40.948Z,29.59
2023-05-17T01:57:54.496Z,29.58
2023-05-17T02:00:07.477Z,29.57
2023-05-17T02:02:23.248Z,29.54
2023-05-17T02:04:33.638Z,29.53
2023-05-17T02:06:43.667Z,29.53
2023-05-17T02:08:54.076Z,29.53
2023-05-17T02:11:03.310Z,29.53
2023-05-17T02:13:13.221Z,29.51
2023-05-17T02:15:22.631Z,29.50
2023-05-17T02:17:31.997Z,29.46
2023-05-17T02:19:41.210Z,29.46
2023-05-17T02:21:50.651Z,29.46
2023-05-17T02:24:00.030Z,29.45
2023-05-17T02:26:09.366Z,29.43
2023-05-17T02:28:18.814Z,29.42
2023-05-17T02:30:28.259Z,29.39
2023-05-17T02:32:37.494Z,29.38
2023-05-17T02:34:46.539Z,29.37
2023-05-17T02:36:56.172Z,29.35
2023-05-17T02:39:05.605Z,29.33
2023-05-17T02:41:15.050Z,29.31
2023-05-17T02:43:24.133Z,29.29
2023-05-17T02:45:34.060Z,29.27
2023-05-17T02:47:44.143Z,29.25
2023-05-17T02:49:53.496Z,29.22
2023-05-17T02:52:03.677Z,29.19
2023-05-17T02:54:12.904Z,29.16
2023-05-17T02:56:22.147Z,29.11
2023-05-17T02:58:31.794Z,29.09
2023-05-17T03:00:41.376Z,29.05
2023-05-17T03:02:50.759Z,29.01
2023-05-17T03:05:00.143Z,28.98
2023-05-17T03:07:10.233Z,28.92
2023-05-17T03:09:21.225Z,28.88
2023-05-17T03:11:32.387Z,28.83
2023-05-17T03:13:44.341Z,28.78
2023-05-17T03:15:54.115Z,28.73
2023-05-17T03:18:04.466Z,28.69
2023-05-17T03:20:14.921Z,28.65
2023-05-17T03:22:23.227Z,28.61
2023-05-17T03:24:32.569Z,28.56
2023-05-17T03:26:42.904Z,28.49
2023-05-17T03:28:54.142Z,28.45
2023-05-17T03:31:03.393Z,28.41
2023-05-17T03:33:14.725Z,28.35
2023-05-17T03:35:24.748Z,28.27
2023-05-17T03:37:39.524Z,28.21
2023-05-17T03:39:49.486Z,28.14
2023-05-17T03:41:59.049Z,28.07
2023-05-17T03:44:09.698Z,28.01
2023-05-17T03:46:19.520Z,27.96
2023-05-17T03:48:29.686Z,27.90
2023-05-17T03:50:39.543Z,27.86
2023-05-17T03:52:48.988Z,27.80
2023-05-17T03:54:58.633Z,27.76
2023-05-17T03:57:08.441Z,27.70
2023-05-17T03:59:18.352Z,27.65
2023-05-17T04:01:28.121Z,27.58
2023-05-17T04:03:38.452Z,27.52
2023-05-17T04:05:48.117Z,27.46
2023-05-17T04:07:58.116Z,27.40
2023-05-17T04:10:08.222Z,27.34
2023-05-17T04:12:17.417Z,27.28
2023-05-17T04:14:26.747Z,27.23
2023-05-17T04:16:37.475Z,27.15
2023-05-17T04:18:47.373Z,27.09
2023-05-17T04:20:58.888Z,27.02
2023-05-17T04:23:06.312Z,26.97
2023-05-17T04:25:16.824Z,26.90
2023-05-17T04:27:25.955Z,26.81
2023-05-17T04:29:35.784Z,26.74
2023-05-17T04:31:47.409Z,26.68
2023-05-17T04:33:57.192Z,26.62
2023-05-17T04:36:07.184Z,26.56
2023-05-17T04:38:16.760Z,26.50
2023-05-17T04:40:26.844Z,26.44
2023-05-17T04:42:36.503Z,26.38
2023-05-17T04:44:46.246Z,26.32
2023-05-17T04:46:56.591Z,26.26
2023-05-17T04:49:06.316Z,26.20
2023-05-17T04:51:16.041Z,26.15
2023-05-17T04:53:25.597Z,26.11
2023-05-17T04:55:35.103Z,26.06
2023-05-17T04:57:44.356Z,26.01
2023-05-17T04:59:56.233Z,25.95
2023-05-17T05:02:07.064Z,25.90
2023-05-17T05:04:16.901Z,25.84
2023-05-17T05:06:29.183Z,25.78
2023-05-17T05:08:38.975Z,25.73
2023-05-17T05:10:51.877Z,25.67
2023-05-17T05:13:01.177Z,25.61
2023-05-17T05:15:12.521Z,25.55
2023-05-17T05:17:22.409Z,25.49
2023-05-17T05:19:32.054Z,25.43
2023-05-17T05:21:41.539Z,25.36
2023-05-17T05:23:50.777Z,25.31
2023-05-17T05:26:00.425Z,25.27
2023-05-17T05:28:10.400Z,25.22
2023-05-17T05:30:23.264Z,25.16
2023-05-17T05:32:35.099Z,25.11
2023-05-17T05:34:44.703Z,25.04
2023-05-17T05:36:53.928Z,25.00
2023-05-17T05:39:03.674Z,24.94
2023-05-17T05:41:14.569Z,24.86
2023-05-17T05:43:23.810Z,24.82
2023-05-17T05:45:33.207Z,24.77
2023-05-17T05:47:44.463Z,24.73
2023-05-17T05:49:53.605Z,24.67
2023-05-17T05:52:03.114Z,24.62
2023-05-17T05:54:12.563Z,24.57
2023-05-17T05:56:21.745Z,24.53
2023-05-17T05:58:31.722Z,24.48
2023-05-17T06:00:42.190Z,24.42
2023-05-17T06:02:51.895Z,24.37
2023-05-17T06:05:01.465Z,24.31
2023-05-17T06:07:10.720Z,24.25
2023-05-17T06:09:19.890Z,24.21
2023-05-17T06:11:29.985Z,24.16
2023-05-17T06:13:39.255Z,24.10
2023-05-17T06:15:48.696Z,24.07
2023-05-17T06:17:57.911Z,24.01
2023-05-17T06:20:11.451Z,23.95
2023-05-17T06:22:20.582Z,23.89
2023-05-17T06:24:30.366Z,23.84
2023-05-17T06:26:39.450Z,23.78
2023-05-17T06:28:51.834Z,23.71
2023-05-17T06:31:01.446Z,23.65
2023-05-17T06:33:10.610Z,23.60
2023-05-17T06:35:20.131Z,23.56
2023-05-17T06:37:29.440Z,23.51
2023-05-17T06:39:38.465Z,23.48
2023-05-17T06:41:48.117Z,23.44
2023-05-17T06:43:59.467Z,23.38
2023-05-17T06:46:08.638Z,23.32
2023-05-17T06:48:18.595Z,23.25
2023-05-17T06:50:28.844Z,23.20
2023-05-17T06:52:38.758Z,23.15
2023-05-17T06:54:47.840Z,23.09
2023-05-17T06:56:57.231Z,23.03
2023-05-17T06:59:06.682Z,22.98
2023-05-17T07:01:17.357Z,22.92
2023-05-17T07:03:27.006Z,22.86
2023-05-17T07:05:36.913Z,22.78
2023-05-17T07:07:46.036Z,22.73
2023-05-17T07:09:55.106Z,22.68
2023-05-17T07:12:04.665Z,22.62
2023-05-17T07:14:13.983Z,22.58
2023-05-17T07:16:23.236Z,22.55
2023-05-17T07:18:32.798Z,22.53
2023-05-17T07:20:42.220Z,22.50
2023-05-17T07:22:51.592Z,22.48
2023-05-17T07:25:03.414Z,22.43
2023-05-17T07:27:12.578Z,22.37
2023-05-17T07:29:21.614Z,22.33
2023-05-17T07:31:30.982Z,22.29
2023-05-17T07:33:40.832Z,22.24
2023-05-17T07:35:49.980Z,22.19
2023-05-17T07:37:59.308Z,22.14
2023-05-17T07:40:11.352Z,22.09
2023-05-17T07:42:20.802Z,22.04
2023-05-17T07:44:30.176Z,22.01
2023-05-17T07:46:39.422Z,21.97
2023-05-17T07:48:48.639Z,21.93
2023-05-17T07:50:57.951Z,21.89
2023-05-17T07:53:07.467Z,21.85
2023-05-17T07:55:17.155Z,21.81
2023-05-17T07:57:27.635Z,21.77
2023-05-17T07:59:37.052Z,21.73
2023-05-17T08:01:46.239Z,21.67
2023-05-17T08:03:55.409Z,21.62
2023-05-17T08:06:04.863Z,21.59
2023-05-17T08:08:14.020Z,21.55
2023-05-17T08:10:24.296Z,21.50
2023-05-17T08:12:34.236Z,21.46
2023-05-17T08:14:43.852Z,21.41
2023-05-17T08:16:53.525Z,21.36
2023-05-17T08:19:03.361Z,21.31
2023-05-17T08:21:12.997Z,21.28
2023-05-17T08:23:22.310Z,21.23
2023-05-17T08:25:32.089Z,21.20
2023-05-17T08:27:41.666Z,21.17
2023-05-17T08:29:52.101Z,21.12
2023-05-17T08:32:02.092Z,21.07
2023-05-17T08:34:11.368Z,21.02
2023-05-17T08:36:21.335Z,20.99
2023-05-17T08:38:30.797Z,20.95
2023-05-17T08:40:40.708Z,20.90
2023-05-17T08:42:50.218Z,20.86
2023-05-17T08:44:59.736Z,20.82
2023-05-17T08:47:12.950Z,20.77
2023-05-17T08:49:26.160Z,20.73
2023-05-17T08:51:39.860Z,20.68
2023-05-17T08:53:50.892Z,20.65
2023-05-17T08:56:04.737Z,20.61
2023-05-17T08:58:15.494Z,20.57
2023-05-17T09:00:26.489Z,20.52
2023-05-17T09:02:35.997Z,20.47
2023-05-17T09:04:45.507Z,20.44
2023-05-17T09:06:55.584Z,20.40
2023-05-17T09:09:07.772Z,20.35
2023-05-17T09:11:25.949Z,20.29
2023-05-17T09:13:35.655Z,20.26
2023-05-17T09:15:46.470Z,20.22
2023-05-17T09:17:59.526Z,20.19
2023-05-17T09:20:10.242Z,20.16
2023-05-17T09:22:21.834Z,20.13
2023-05-17T09:24:34.323Z,20.10
2023-05-17T09:26:44.830Z,20.07
2023-05-17T09:28:54.152Z,20.04
2023-05-17T09:31:10.067Z,20.00
2023-05-17T09:33:23.057Z,19.97
2023-05-17T09:35:35.788Z,19.93
2023-05-17T09:37:47.471Z,19.89
2023-05-17T09:39:59.204Z,19.85
2023-05-17T09:42:06.485Z,19.82
2023-05-17T09:44:16.811Z,19.76
2023-05-17T09:46:26.280Z,19.73
2023-05-17T09:48:39.748Z,19.69
2023-05-17T09:50:50.331Z,19.67
2023-05-17T09:52:59.769Z,19.64
2023-05-17T09:55:12.112Z,19.61
2023-05-17T09:57:21.452Z,19.58
2023-05-17T09:59:32.204Z,19.54
2023-05-17T10:02:35.393Z,19.51
2023-05-17T10:04:46.146Z,19.45
2023-05-17T10:06:56.782Z,19.39
2023-05-17T10:09:08.633Z,19.35
2023-05-17T10:11:18.736Z,19.32
2023-05-17T10:13:33.759Z,19.28
2023-05-17T10:15:44.560Z,19.21
2023-05-17T10:18:27.769Z,19.17
2023-05-17T10:20:27.098Z,19.12
2023-05-17T10:22:36.900Z,19.07
2023-05-17T10:24:49.431Z,19.04
2023-05-17T10:27:02.349Z,19.01
2023-05-17T10:29:11.940Z,18.97
2023-05-17T10:31:43.014Z,18.95
2023-05-17T10:33:54.747Z,18.92
2023-05-17T10:36:26.365Z,18.88
2023-05-17T10:38:42.582Z,18.83
2023-05-17T10:40:57.432Z,18.79
2023-05-17T10:43:15.170Z,18.75
2023-05-17T10:45:27.751Z,18.73
2023-05-17T10:47:37.917Z,18.69
2023-05-17T10:49:50.470Z,18.66
2023-05-17T10:52:01.195Z,18.62
2023-05-17T10:54:14.450Z,18.59
2023-05-17T10:56:24.868Z,18.55
2023-05-17T10:58:34.311Z,18.51
2023-05-17T11:00:48.831Z,18.48
2023-05-17T11:03:18.296Z,18.45
2023-05-17T11:05:30.976Z,18.41
2023-05-17T11:07:41.328Z,18.39
2023-05-17T11:09:54.423Z,18.36
2023-05-17T11:12:11.335Z,18.33
2023-05-17T11:14:23.422Z,18.30
2023-05-17T11:16:36.569Z,18.25
2023-05-17T11:18:53.402Z,18.23
2023-05-17T11:21:15.036Z,18.19
2023-05-17T11:23:32.060Z,18.17
2023-05-17T11:25:42.285Z,18.13
2023-05-17T11:27:53.019Z,18.09
2023-05-17T11:30:27.134Z,18.05
2023-05-17T11:33:00.312Z,18.03
2023-05-17T11:35:13.704Z,18.01
2023-05-17T11:37:33.122Z,17.98
2023-05-17T11:40:06.388Z,17.96
2023-05-17T11:42:27.850Z,17.92
2023-05-17T11:44:58.260Z,17.88
2023-05-17T11:47:11.803Z,17.85
2023-05-17T11:49:34.106Z,17.82
2023-05-17T11:51:54.089Z,17.77
2023-05-17T11:54:11.290Z,17.73
2023-05-17T11:56:26.449Z,17.70
2023-05-17T11:58:45.292Z,17.68
2023-05-17T12:00:59.793Z,17.66
2023-05-17T12:03:25.870Z,17.64
2023-05-17T12:05:46.698Z,17.61
2023-05-17T12:07:55.901Z,17.58
2023-05-17T12:10:18.222Z,17.55
2023-05-17T12:12:27.941Z,17.52
2023-05-17T12:14:37.667Z,17.50
2023-05-17T12:16:50.381Z,17.47
2023-05-17T12:19:00.629Z,17.44
2023-05-17T12:21:15.726Z,17.42
2023-05-17T12:23:33.236Z,17.38
2023-05-17T12:25:42.689Z,17.33
2023-05-17T12:27:52.033Z,17.31
2023-05-17T12:30:15.735Z,17.27
2023-05-17T12:32:25.956Z,17.24
2023-05-17T12:34:38.435Z,17.19
2023-05-17T12:37:11.073Z,17.18
2023-05-17T12:39:25.120Z,17.14
2023-05-17T12:41:35.003Z,17.12
2023-05-17T12:43:46.673Z,17.09
2023-05-17T12:46:10.320Z,17.08
2023-05-17T12:48:41.148Z,17.06
2023-05-17T12:50:56.097Z,17.04
2023-05-17T12:53:11.552Z,17.02
2023-05-17T12:55:37.816Z,17.00
2023-05-17T12:57:54.332Z,16.99
2023-05-17T13:00:08.115Z,16.98
2023-05-17T13:02:17.609Z,16.97
2023-05-17T13:04:41.509Z,16.96
2023-05-17T13:06:52.761Z,16.95
2023-05-17T13:09:08.286Z,16.94
2023-05-17T13:11:18.004Z,16.92
2023-05-17T13:13:27.101Z,16.91
2023-05-17T13:15:37.154Z,16.90
2023-05-17T13:17:51.535Z,16.91
2023-05-17T13:20:06.542Z,16.91
2023-05-17T13:22:17.415Z,16.91
2023-05-17T13:24:38.636Z,16.91
2023-05-17T13:26:47.872Z,16.90
2023-05-17T13:28:57.231Z,16.90
2023-05-17T13:31:10.142Z,16.90
2023-05-17T13:33:19.448Z,16.90
2023-05-17T13:35:28.984Z,16.90
2023-05-17T13:37:39.110Z,16.92
2023-05-17T13:39:48.526Z,16.93
2023-05-17T13:41:57.926Z,16.95
2023-05-17T13:44:07.756Z,16.95
2023-05-17T13:46:17.347Z,16.96
2023-05-17T13:48:47.212Z,16.98
2023-05-17T13:50:57.185Z,16.99
2023-05-17T13:53:06.578Z,17.00
2023-05-17T13:55:16.469Z,17.02
2023-05-17T13:57:29.155Z,17.04
2023-05-17T13:59:38.613Z,17.05
2023-05-17T14:01:48.213Z,17.09
2023-05-17T14:03:57.717Z,17.12
2023-05-17T14:06:10.506Z,17.15
2023-05-17T14:08:20.575Z,17.18
2023-05-17T14:10:33.423Z,17.22
2023-05-17T14:12:42.854Z,17.25
2023-05-17T14:15:01.447Z,17.31
2023-05-17T14:17:21.901Z,17.34
2023-05-17T14:19:31.479Z,17.37
2023-05-17T14:21:41.129Z,17.39
2023-05-17T14:24:00.648Z,17.41
2023-05-17T14:26:11.604Z,17.44
2023-05-17T14:28:20.992Z,17.47
2023-05-17T14:30:30.701Z,17.52
2023-05-17T14:32:43.146Z,17.55
2023-05-17T14:34:52.412Z,17.58
2023-05-17T14:37:02.488Z,17.62
2023-05-17T14:39:11.864Z,17.67
2023-05-17T14:41:22.357Z,17.72
2023-05-17T14:43:32.786Z,17.77
2023-05-17T14:45:42.595Z,17.82
2023-05-17T14:47:52.165Z,17.88
2023-05-17T14:50:02.384Z,17.93
2023-05-17T14:52:12.650Z,18.00
2023-05-17T14:54:22.277Z,18.07
2023-05-17T14:56:32.707Z,18.15
2023-05-17T14:58:45.528Z,18.22
2023-05-17T15:01:05.684Z,18.30
2023-05-17T15:03:19.443Z,18.33
2023-05-17T15:05:31.533Z,18.38
2023-05-17T15:07:41.188Z,18.42
2023-05-17T15:09:50.474Z,18.48
2023-05-17T15:11:59.740Z,18.55
2023-05-17T15:14:09.290Z,18.66
2023-05-17T15:16:19.276Z,18.74
2023-05-17T15:18:28.725Z,18.81
2023-05-17T15:20:40.273Z,18.90
2023-05-17T15:22:48.583Z,19.00
2023-05-17T15:24:58.695Z,19.08
2023-05-17T15:27:15.644Z,19.16
2023-05-17T15:29:25.098Z,19.24
2023-05-17T15:31:38.301Z,19.32
2023-05-17T15:33:47.499Z,19.41
2023-05-17T15:35:56.696Z,19.49
2023-05-17T15:38:07.530Z,19.60
2023-05-17T15:40:17.952Z,19.75
2023-05-17T15:42:27.194Z,19.88
2023-05-17T15:44:36.711Z,20.01
2023-05-17T15:46:46.423Z,20.16
2023-05-17T15:48:57.332Z,20.32
2023-05-17T15:51:10.652Z,20.48
2023-05-17T15:53:23.572Z,20.62
2023-05-17T15:55:32.796Z,20.75
2023-05-17T15:57:42.939Z,20.85
2023-05-17T15:59:52.315Z,20.99
2023-05-17T16:02:02.120Z,21.17
2023-05-17T16:04:12.236Z,21.35
2023-05-17T16:06:22.335Z,21.51
2023-05-17T16:08:32.203Z,21.63
2023-05-17T16:10:42.473Z,21.75
2023-05-17T16:12:52.596Z,21.88
2023-05-17T16:15:01.904Z,21.96
2023-05-17T16:17:11.398Z,22.07
2023-05-17T16:19:21.080Z,22.21
2023-05-17T16:21:31.707Z,22.32
2023-05-17T16:23:41.237Z,22.43
2023-05-17T16:25:50.525Z,22.54
2023-05-17T16:28:00.184Z,22.66
2023-05-17T16:30:13.669Z,22.79
2023-05-17T16:32:22.987Z,22.91
2023-05-17T16:34:32.835Z,23.05
2023-05-17T16:36:42.462Z,23.15
2023-05-17T16:38:52.056Z,23.23
2023-05-17T16:41:03.509Z,23.32
2023-05-17T16:43:23.971Z,23.43
2023-05-17T16:45:33.248Z,23.56
2023-05-17T16:47:43.028Z,23.67
2023-05-17T16:49:52.306Z,23.76
2023-05-17T16:52:01.506Z,23.83
2023-05-17T16:54:10.894Z,23.88
2023-05-17T16:56:20.579Z,23.91
2023-05-17T16:58:30.188Z,23.99
2023-05-17T17:00:40.380Z,24.06
2023-05-17T17:02:49.748Z,24.23
2023-05-17T17:04:59.624Z,24.42
2023-05-17T17:07:09.156Z,24.58
2023-05-17T17:09:18.988Z,24.71
2023-05-17T17:11:28.224Z,24.83
2023-05-17T17:13:37.867Z,24.97
2023-05-17T17:15:47.486Z,25.10
2023-05-17T17:17:56.831Z,25.23
2023-05-17T17:20:07.175Z,25.35
2023-05-17T17:22:16.729Z,25.45
2023-05-17T17:24:29.029Z,25.46
2023-05-17T17:26:38.762Z,25.52
2023-05-17T17:28:51.980Z,25.63
2023-05-17T17:31:12.653Z,25.79
2023-05-17T17:33:22.028Z,25.93
2023-05-17T17:35:31.334Z,26.12
2023-05-17T17:37:40.905Z,26.28
2023-05-17T17:39:50.502Z,26.39
2023-05-17T17:41:59.632Z,26.51
2023-05-17T17:44:11.876Z,26.63
2023-05-17T17:46:21.407Z,26.73
2023-05-17T17:48:30.789Z,26.81
2023-05-17T17:50:43.350Z,26.92
2023-05-17T17:52:53.579Z,27.03
2023-05-17T17:55:03.212Z,27.15
2023-05-17T17:57:16.032Z,27.29
2023-05-17T17:59:25.996Z,27.39
2023-05-17T18:01:38.154Z,27.46
2023-05-17T18:03:48.026Z,27.55
2023-05-17T18:05:57.367Z,27.63
2023-05-17T18:08:07.089Z,27.68
2023-05-17T18:10:16.626Z,27.70
2023-05-17T18:12:27.407Z,27.71
2023-05-17T18:14:37.134Z,27.73
2023-05-17T18:16:46.320Z,27.76
2023-05-17T18:18:59.968Z,27.79
2023-05-17T18:21:09.974Z,27.82
2023-05-17T18:23:19.492Z,27.85
2023-05-17T18:25:28.685Z,27.88
2023-05-17T18:27:41.880Z,27.95
2023-05-17T18:29:51.761Z,27.99
2023-05-17T18:32:01.999Z,28.07
2023-05-17T18:34:11.866Z,28.15
2023-05-17T18:36:21.316Z,28.19
2023-05-17T18:38:30.650Z,28.23
2023-05-17T18:40:40.368Z,28.26
2023-05-17T18:42:50.001Z,28.30
2023-05-17T18:45:00.500Z,28.31
2023-05-17T18:47:10.929Z,28.35
2023-05-17T18:49:23.836Z,28.40
2023-05-17T18:51:33.121Z,28.49
2023-05-17T18:53:45.820Z,28.56
2023-05-17T18:55:59.935Z,28.61
2023-05-17T18:58:09.577Z,28.68
2023-05-17T19:00:21.370Z,28.76
2023-05-17T19:02:31.582Z,28.86
2023-05-17T19:04:40.970Z,28.96
2023-05-17T19:06:50.360Z,29.01
2023-05-17T19:09:00.426Z,29.12
2023-05-17T19:11:10.102Z,29.22
2023-05-17T19:13:19.428Z,29.30
2023-05-17T19:15:28.681Z,29.39
2023-05-17T19:17:38.694Z,29.44
2023-05-17T19:19:47.956Z,29.49
2023-05-17T19:21:57.156Z,29.56
2023-05-17T19:24:06.958Z,29.64
2023-05-17T19:26:16.201Z,29.69
2023-05-17T19:28:25.280Z,29.74
2023-05-17T19:30:35.177Z,29.81
2023-05-17T19:32:44.679Z,29.88
2023-05-17T19:34:53.776Z,29.96
2023-05-17T19:37:02.838Z,30.04
2023-05-17T19:39:12.057Z,30.10
2023-05-17T19:41:22.246Z,30.03
2023-05-17T19:43:32.516Z,29.96
2023-05-17T19:45:42.762Z,29.96
2023-05-17T19:47:53.913Z,29.95
2023-05-17T19:50:03.181Z,29.97
2023-05-17T19:52:12.924Z,30.04
2023-05-17T19:54:22.293Z,30.15
2023-05-17T19:56:31.478Z,30.26
2023-05-17T19:58:41.076Z,30.39
2023-05-17T20:00:50.968Z,30.51
2023-05-17T20:03:00.196Z,30.67
2023-05-17T20:05:11.101Z,30.74
2023-05-17T20:07:25.978Z,30.82
2023-05-17T20:09:36.606Z,30.85
2023-05-17T20:11:46.911Z,30.85
2023-05-17T20:13:56.137Z,30.84
2023-05-17T20:16:12.650Z,30.86
2023-05-17T20:18:23.634Z,30.96
2023-05-17T20:20:32.978Z,31.07
2023-05-17T20:22:43.347Z,31.12
2023-05-17T20:24:52.831Z,31.08
2023-05-17T20:27:02.936Z,31.06
2023-05-17T20:29:12.380Z,31.09
2023-05-17T20:31:22.118Z,31.11
2023-05-17T20:33:31.216Z,31.06
2023-05-17T20:35:40.655Z,31.05
2023-05-17T20:37:49.883Z,31.08
2023-05-17T20:40:00.406Z,31.17
2023-05-17T20:42:11.342Z,31.21
2023-05-17T20:44:20.456Z,31.23
2023-05-17T20:46:30.171Z,31.29
2023-05-17T20:48:40.367Z,31.32
2023-05-17T20:50:49.664Z,31.33
2023-05-17T20:52:58.812Z,31.36
2023-05-17T20:55:09.832Z,31.35
2023-05-17T20:57:19.178Z,31.37
2023-05-17T20:59:28.345Z,31.37
2023-05-17T21:01:38.132Z,31.37
2023-05-17T21:03:47.759Z,31.42
2023-05-17T21:05:57.374Z,31.46
2023-05-17T21:08:07.627Z,31.47
2023-05-17T21:10:18.168Z,31.51
2023-05-17T21:12:27.419Z,31.55
2023-05-17T21:14:36.520Z,31.57
2023-05-17T21:16:46.047Z,31.59
2023-05-17T21:18:55.428Z,31.64
2023-05-17T21:21:04.699Z,31.74
2023-05-17T21:23:14.393Z,31.80
2023-05-17T21:25:23.585Z,31.85
2023-05-17T21:27:34.091Z,31.91
2023-05-17T21:29:46.074Z,31.98
2023-05-17T21:31:56.029Z,32.03
2023-05-17T21:34:05.159Z,32.04
2023-05-17T21:36:14.690Z,32.04
2023-05-17T21:38:23.834Z,32.03
2023-05-17T21:40:33.351Z,32.07
2023-05-17T21:42:43.343Z,32.11
2023-05-17T21:44:52.584Z,32.18
2023-05-17T21:47:01.855Z,32.27
2023-05-17T21:49:11.392Z,32.32
2023-05-17T21:51:20.582Z,32.33
2023-05-17T21:53:29.779Z,32.31
2023-05-17T21:55:56.297Z,32.35
2023-05-17T21:58:09.414Z,32.43
2023-05-17T22:00:20.572Z,32.43
2023-05-17T22:02:28.404Z,32.45
2023-05-17T22:04:38.895Z,32.47
2023-05-17T22:06:48.694Z,32.49
2023-05-17T22:08:57.994Z,32.59
2023-05-17T22:11:07.549Z,32.68
2023-05-17T22:13:18.606Z,32.74
2023-05-17T22:15:28.234Z,32.77
2023-05-17T22:17:47.975Z,32.76
2023-05-17T22:20:03.493Z,32.75
2023-05-17T22:22:13.418Z,32.74
2023-05-17T22:24:22.509Z,32.71
2023-05-17T22:26:31.710Z,32.75
2023-05-17T22:28:41.072Z,32.81
2023-05-17T22:30:50.441Z,32.88
2023-05-17T22:33:01.368Z,32.93
2023-05-17T22:35:11.736Z,32.94
2023-05-17T22:37:22.952Z,32.90
2023-05-17T22:39:30.061Z,32.93
2023-05-17T22:41:39.502Z,32.94
2023-05-17T22:43:48.809Z,32.95
2023-05-17T22:46:00.257Z,32.99
2023-05-17T22:48:10.183Z,33.03
2023-05-17T22:50:19.937Z,33.08
2023-05-17T22:52:29.143Z,33.12
2023-05-17T22:54:39.130Z,33.14
2023-05-17T22:56:48.503Z,33.17
2023-05-17T22:58:57.762Z,33.21
2023-05-17T23:01:07.123Z,33.25
2023-05-17T23:03:19.654Z,33.27
2023-05-17T23:05:29.204Z,33.29
2023-05-17T23:07:38.909Z,33.30
2023-05-17T23:09:49.323Z,33.33
2023-05-17T23:12:00.723Z,33.36
2023-05-17T23:14:11.977Z,33.36
2023-05-17T23:16:21.230Z,33.35
2023-05-17T23:18:30.514Z,33.34
2023-05-17T23:20:39.770Z,33.35
2023-05-17T23:22:49.409Z,33.35
2023-05-17T23:24:58.468Z,33.37
2023-05-17T23:27:10.397Z,33.39
2023-05-17T23:29:20.392Z,33.41
2023-05-17T23:31:30.453Z,33.41
2023-05-17T23:33:43.323Z,33.43
2023-05-17T23:35:53.934Z,33.46
2023-05-17T23:38:04.561Z,33.49
2023-05-17T23:40:16.964Z,33.50
2023-05-17T23:42:26.966Z,33.50
2023-05-17T23:44:36.269Z,33.51
2023-05-17T23:46:48.578Z,33.52
2023-05-17T23:48:57.747Z,33.54
2023-05-17T23:51:07.126Z,33.56
2023-05-17T23:53:18.889Z,33.58
2023-05-17T23:55:28.385Z,33.58
2023-05-17T23:57:38.111Z,33.60
2023-05-17T23:59:47.353Z,33.61
